Savannakhet, Savannakhet Airport (VLSK)

NameSavannakhet Airport
CitySavannakhet
CountryLao People's Democratic Republic
ICAOVLSK
IATAZVK
Altitude155 m
CoordinatesGoogle Map
Live Air TrafficLiveATC.net
METARVLSK 131300Z 02006KT 6000 SCT040 BKN100 20/14 Q1019 NOSIG
2018-12-13 13:00:00 Wind: North (20°) 3.09 m/s - Visibility: 6000 m - Temperature: 20 °C - Dew point: 14 °C - Humidity: 68.5% - Pressure: 1019 hPa

Sorry, no flights used the airport in this database.